Terminal Aerodrome Forecast
Issued by NWS Pueblo, CO

Home | Current Version | Previous Version | Text Only | Print | Product List | Glossary On
Versions: 1 2 3 4 5 6 7 8 9 10 11 12 13 14 15 16 17 18 19 20 21 22 23 24 25 26 27 28 29 30 31 32 33 34 35 36 37 38 39 40 41 42 43 44 45 46 47 48 49 50
000
FTUS45 KPUB 070530
TAFCOS
TAF
KCOS 070530Z 0706/0806 VRB06KT 5SM BR VCSH SCT015 OVC025
      TEMPO 0706/0710 3SM -SHRA BR SCT008 OVC012
     FM071000 VRB05KT 4SM BR VCSH SCT008 OVC015
     FM071500 15010KT 5SM BR SCT008 OVC015
     FM071900 17012KT P6SM VCSH SCT020 BKN035
     FM080300 13008KT P6SM SCT020 BKN035=

USA.gov is the U.S. government's official web portal to all federal, state and local government web resources and services.